sensor_id;sensor_type;location;lat;lon;timestamp;temperature;humidity
29939;DHT22;16799;50.844;5.304;2022-12-24T00:02:08;10.90;99.90
29939;DHT22;16799;50.844;5.304;2022-12-24T00:04:33;10.80;99.90
29939;DHT22;16799;50.844;5.304;2022-12-24T00:06:59;10.80;99.90
29939;DHT22;16799;50.844;5.304;2022-12-24T00:09:25;10.80;99.90
29939;DHT22;16799;50.844;5.304;2022-12-24T00:11:50;10.90;99.90
29939;DHT22;16799;50.844;5.304;2022-12-24T00:14:16;10.90;99.90
29939;DHT22;16799;50.844;5.304;2022-12-24T00:16:42;10.90;99.90
29939;DHT22;16799;50.844;5.304;2022-12-24T00:19:07;10.90;99.90
29939;DHT22;16799;50.844;5.304;2022-12-24T00:21:33;10.90;99.90
29939;DHT22;16799;50.844;5.304;2022-12-24T00:23:59;10.90;99.90
29939;DHT22;16799;50.844;5.304;2022-12-24T00:26:24;10.90;99.90
29939;DHT22;16799;50.844;5.304;2022-12-24T00:28:50;10.80;99.90
29939;DHT22;16799;50.844;5.304;2022-12-24T00:31:17;10.80;99.90
29939;DHT22;16799;50.844;5.304;2022-12-24T00:33:45;10.80;99.90
29939;DHT22;16799;50.844;5.304;2022-12-24T00:36:11;10.70;99.90
29939;DHT22;16799;50.844;5.304;2022-12-24T00:38:37;10.70;99.90
29939;DHT22;16799;50.844;5.304;2022-12-24T00:41:06;10.60;99.90
29939;DHT22;16799;50.844;5.304;2022-12-24T00:43:59;10.50;99.90
29939;DHT22;16799;50.844;5.304;2022-12-24T00:46:27;10.50;99.90
29939;DHT22;16799;50.844;5.304;2022-12-24T00:48:53;10.60;99.90
29939;DHT22;16799;50.844;5.304;2022-12-24T00:51:19;10.60;99.90
29939;DHT22;16799;50.844;5.304;2022-12-24T00:53:45;10.50;99.90
29939;DHT22;16799;50.844;5.304;2022-12-24T00:56:11;10.50;99.90
29939;DHT22;16799;50.844;5.304;2022-12-24T00:58:37;10.50;99.90
29939;DHT22;16799;50.844;5.304;2022-12-24T01:01:03;10.50;99.90
29939;DHT22;16799;50.844;5.304;2022-12-24T01:03:29;10.40;99.90
29939;DHT22;16799;50.844;5.304;2022-12-24T01:06:10;10.50;99.90
29939;DHT22;16799;50.844;5.304;2022-12-24T01:08:36;10.60;99.90
29939;DHT22;16799;50.844;5.304;2022-12-24T01:11:03;10.60;99.90
29939;DHT22;16799;50.844;5.304;2022-12-24T01:13:30;10.60;99.90
29939;DHT22;16799;50.844;5.304;2022-12-24T01:15:55;10.70;99.90
29939;DHT22;16799;50.844;5.304;2022-12-24T01:18:22;10.60;99.90
29939;DHT22;16799;50.844;5.304;2022-12-24T01:21:01;10.70;99.90
29939;DHT22;16799;50.844;5.304;2022-12-24T01:23:29;10.70;99.90
29939;DHT22;16799;50.844;5.304;2022-12-24T01:25:58;10.60;99.90
29939;DHT22;16799;50.844;5.304;2022-12-24T01:28:25;10.50;99.90
29939;DHT22;16799;50.844;5.304;2022-12-24T01:30:50;10.40;99.90
29939;DHT22;16799;50.844;5.304;2022-12-24T01:33:16;10.30;99.90
29939;DHT22;16799;50.844;5.304;2022-12-24T01:35:42;10.30;99.90
29939;DHT22;16799;50.844;5.304;2022-12-24T01:38:09;10.20;99.90
29939;DHT22;16799;50.844;5.304;2022-12-24T01:40:37;10.20;99.90
29939;DHT22;16799;50.844;5.304;2022-12-24T01:43:22;10.10;99.90
29939;DHT22;16799;50.844;5.304;2022-12-24T01:53:52;10.00;99.90
29939;DHT22;16799;50.844;5.304;2022-12-24T01:56:20;10.00;99.90
29939;DHT22;16799;50.844;5.304;2022-12-24T01:58:52;10.00;99.90
29939;DHT22;16799;50.844;5.304;2022-12-24T02:01:19;10.00;99.90
29939;DHT22;16799;50.844;5.304;2022-12-24T02:03:45;10.00;99.90
29939;DHT22;16799;50.844;5.304;2022-12-24T02:06:12;9.90;99.90
29939;DHT22;16799;50.844;5.304;2022-12-24T02:08:40;9.90;99.90
29939;DHT22;16799;50.844;5.304;2022-12-24T02:11:13;9.90;99.90
29939;DHT22;16799;50.844;5.304;2022-12-24T02:13:40;9.80;99.90
29939;DHT22;16799;50.844;5.304;2022-12-24T02:30:11;9.40;99.90
29939;DHT22;16799;50.844;5.304;2022-12-24T02:35:40;9.40;99.90
29939;DHT22;16799;50.844;5.304;2022-12-24T02:41:02;9.30;99.90
29939;DHT22;16799;50.844;5.304;2022-12-24T02:43:36;9.30;99.90
29939;DHT22;16799;50.844;5.304;2022-12-24T02:46:15;9.20;99.90
29939;DHT22;16799;50.844;5.304;2022-12-24T02:48:43;9.20;99.90
29939;DHT22;16799;50.844;5.304;2022-12-24T02:51:10;9.20;99.90
29939;DHT22;16799;50.844;5.304;2022-12-24T02:53:36;9.20;99.90
29939;DHT22;16799;50.844;5.304;2022-12-24T03:01:26;9.60;99.90
29939;DHT22;16799;50.844;5.304;2022-12-24T03:07:12;9.80;99.90
29939;DHT22;16799;50.844;5.304;2022-12-24T03:12:14;10.00;99.90
29939;DHT22;16799;50.844;5.304;2022-12-24T03:14:42;9.90;99.90
29939;DHT22;16799;50.844;5.304;2022-12-24T03:17:09;9.80;99.90
29939;DHT22;16799;50.844;5.304;2022-12-24T03:19:35;9.80;99.90
29939;DHT22;16799;50.844;5.304;2022-12-24T03:22:03;9.70;99.90
29939;DHT22;16799;50.844;5.304;2022-12-24T03:24:32;9.70;99.90
29939;DHT22;16799;50.844;5.304;2022-12-24T03:26:58;9.70;99.90
29939;DHT22;16799;50.844;5.304;2022-12-24T03:29:24;9.70;99.90
29939;DHT22;16799;50.844;5.304;2022-12-24T03:31:51;9.70;99.90
29939;DHT22;16799;50.844;5.304;2022-12-24T03:34:18;9.80;99.90
29939;DHT22;16799;50.844;5.304;2022-12-24T03:36:44;9.80;99.90
29939;DHT22;16799;50.844;5.304;2022-12-24T03:39:11;9.80;99.90
29939;DHT22;16799;50.844;5.304;2022-12-24T03:41:37;9.90;99.90
29939;DHT22;16799;50.844;5.304;2022-12-24T03:44:04;10.00;99.90
29939;DHT22;16799;50.844;5.304;2022-12-24T03:46:29;10.00;99.90
29939;DHT22;16799;50.844;5.304;2022-12-24T03:48:55;10.00;99.90
29939;DHT22;16799;50.844;5.304;2022-12-24T03:51:23;10.00;99.90
29939;DHT22;16799;50.844;5.304;2022-12-24T03:53:51;9.90;99.90
29939;DHT22;16799;50.844;5.304;2022-12-24T03:56:17;9.90;99.90
29939;DHT22;16799;50.844;5.304;2022-12-24T03:58:43;9.90;99.90
29939;DHT22;16799;50.844;5.304;2022-12-24T04:01:09;9.80;99.90
29939;DHT22;16799;50.844;5.304;2022-12-24T04:03:34;9.90;99.90
29939;DHT22;16799;50.844;5.304;2022-12-24T04:06:08;9.90;99.90
29939;DHT22;16799;50.844;5.304;2022-12-24T04:08:34;9.90;99.90
29939;DHT22;16799;50.844;5.304;2022-12-24T04:11:00;9.80;99.90
29939;DHT22;16799;50.844;5.304;2022-12-24T04:13:28;9.80;99.90
29939;DHT22;16799;50.844;5.304;2022-12-24T04:16:13;9.80;99.90
29939;DHT22;16799;50.844;5.304;2022-12-24T04:18:39;9.70;99.90
29939;DHT22;16799;50.844;5.304;2022-12-24T04:21:06;9.70;99.90
29939;DHT22;16799;50.844;5.304;2022-12-24T04:23:33;9.70;99.90
29939;DHT22;16799;50.844;5.304;2022-12-24T04:26:00;9.70;99.90
29939;DHT22;16799;50.844;5.304;2022-12-24T04:28:28;9.60;99.90
29939;DHT22;16799;50.844;5.304;2022-12-24T04:31:01;9.60;99.90
29939;DHT22;16799;50.844;5.304;2022-12-24T04:33:27;9.60;99.90
29939;DHT22;16799;50.844;5.304;2022-12-24T04:35:55;9.50;99.90
29939;DHT22;16799;50.844;5.304;2022-12-24T04:38:21;9.50;99.90
29939;DHT22;16799;50.844;5.304;2022-12-24T04:40:47;9.40;99.90
29939;DHT22;16799;50.844;5.304;2022-12-24T04:43:13;9.50;99.90
29939;DHT22;16799;50.844;5.304;2022-12-24T04:45:38;9.50;99.90
29939;DHT22;16799;50.844;5.304;2022-12-24T04:48:04;9.50;99.90
29939;DHT22;16799;50.844;5.304;2022-12-24T04:50:30;9.50;99.90
29939;DHT22;16799;50.844;5.304;2022-12-24T04:52:55;9.50;99.90
29939;DHT22;16799;50.844;5.304;2022-12-24T04:55:21;9.50;99.90
29939;DHT22;16799;50.844;5.304;2022-12-24T04:57:47;9.50;99.90
29939;DHT22;16799;50.844;5.304;2022-12-24T05:00:13;9.50;99.90
29939;DHT22;16799;50.844;5.304;2022-12-24T05:02:38;9.60;99.90
29939;DHT22;16799;50.844;5.304;2022-12-24T05:05:04;9.60;99.90
29939;DHT22;16799;50.844;5.304;2022-12-24T05:07:30;9.60;99.90
29939;DHT22;16799;50.844;5.304;2022-12-24T05:09:56;9.70;99.90
29939;DHT22;16799;50.844;5.304;2022-12-24T05:12:21;9.70;99.90
29939;DHT22;16799;50.844;5.304;2022-12-24T05:14:47;9.70;99.90
29939;DHT22;16799;50.844;5.304;2022-12-24T05:17:13;9.70;99.90
29939;DHT22;16799;50.844;5.304;2022-12-24T05:19:39;9.80;99.90
29939;DHT22;16799;50.844;5.304;2022-12-24T05:22:04;9.80;99.90
29939;DHT22;16799;50.844;5.304;2022-12-24T05:24:48;9.80;99.90
29939;DHT22;16799;50.844;5.304;2022-12-24T05:27:33;9.80;99.90
29939;DHT22;16799;50.844;5.304;2022-12-24T05:29:58;9.80;99.90
29939;DHT22;16799;50.844;5.304;2022-12-24T05:32:24;9.80;99.90
29939;DHT22;16799;50.844;5.304;2022-12-24T05:34:50;9.80;99.90
29939;DHT22;16799;50.844;5.304;2022-12-24T05:37:16;9.80;99.90
29939;DHT22;16799;50.844;5.304;2022-12-24T05:39:41;9.90;99.90
29939;DHT22;16799;50.844;5.304;2022-12-24T05:42:07;9.80;99.90
29939;DHT22;16799;50.844;5.304;2022-12-24T05:44:33;9.80;99.90
29939;DHT22;16799;50.844;5.304;2022-12-24T05:46:58;9.80;99.90
29939;DHT22;16799;50.844;5.304;2022-12-24T05:49:24;9.80;99.90
29939;DHT22;16799;50.844;5.304;2022-12-24T05:51:50;9.80;99.90
29939;DHT22;16799;50.844;5.304;2022-12-24T05:54:15;9.80;99.90
29939;DHT22;16799;50.844;5.304;2022-12-24T05:56:41;9.80;99.90
29939;DHT22;16799;50.844;5.304;2022-12-24T05:59:07;9.70;99.90
29939;DHT22;16799;50.844;5.304;2022-12-24T06:01:32;9.70;99.90
29939;DHT22;16799;50.844;5.304;2022-12-24T06:03:58;9.70;99.90
29939;DHT22;16799;50.844;5.304;2022-12-24T06:06:26;9.70;99.90
29939;DHT22;16799;50.844;5.304;2022-12-24T06:08:53;9.70;99.90
29939;DHT22;16799;50.844;5.304;2022-12-24T06:11:21;9.60;99.90
29939;DHT22;16799;50.844;5.304;2022-12-24T06:13:47;9.60;99.90
29939;DHT22;16799;50.844;5.304;2022-12-24T06:16:15;9.60;99.90
29939;DHT22;16799;50.844;5.304;2022-12-24T06:18:41;9.50;99.90
29939;DHT22;16799;50.844;5.304;2022-12-24T06:21:07;9.50;99.90
29939;DHT22;16799;50.844;5.304;2022-12-24T06:23:36;9.50;99.90
29939;DHT22;16799;50.844;5.304;2022-12-24T06:26:03;9.40;99.90
29939;DHT22;16799;50.844;5.304;2022-12-24T06:28:31;9.40;99.90
29939;DHT22;16799;50.844;5.304;2022-12-24T06:30:56;9.50;99.90
29939;DHT22;16799;50.844;5.304;2022-12-24T06:33:22;9.40;99.90
29939;DHT22;16799;50.844;5.304;2022-12-24T06:35:48;9.40;99.90
29939;DHT22;16799;50.844;5.304;2022-12-24T06:38:14;9.40;99.90
29939;DHT22;16799;50.844;5.304;2022-12-24T06:40:41;9.40;99.90
29939;DHT22;16799;50.844;5.304;2022-12-24T06:43:07;9.40;99.90
29939;DHT22;16799;50.844;5.304;2022-12-24T06:45:33;9.40;99.90
29939;DHT22;16799;50.844;5.304;2022-12-24T06:48:00;9.40;99.90
29939;DHT22;16799;50.844;5.304;2022-12-24T06:50:25;9.40;99.90
29939;DHT22;16799;50.844;5.304;2022-12-24T06:52:51;9.40;99.90
29939;DHT22;16799;50.844;5.304;2022-12-24T06:55:17;9.40;99.90
29939;DHT22;16799;50.844;5.304;2022-12-24T06:57:43;9.40;99.90
29939;DHT22;16799;50.844;5.304;2022-12-24T07:00:10;9.50;99.90
29939;DHT22;16799;50.844;5.304;2022-12-24T07:02:40;9.50;99.90
29939;DHT22;16799;50.844;5.304;2022-12-24T07:05:07;9.60;99.90
29939;DHT22;16799;50.844;5.304;2022-12-24T07:07:37;9.60;99.90
29939;DHT22;16799;50.844;5.304;2022-12-24T07:10:04;9.70;99.90
29939;DHT22;16799;50.844;5.304;2022-12-24T07:12:30;9.70;99.90
29939;DHT22;16799;50.844;5.304;2022-12-24T07:14:55;9.70;99.90
29939;DHT22;16799;50.844;5.304;2022-12-24T07:17:21;9.70;99.90
29939;DHT22;16799;50.844;5.304;2022-12-24T07:19:46;9.80;99.90
29939;DHT22;16799;50.844;5.304;2022-12-24T07:22:12;9.70;99.90
29939;DHT22;16799;50.844;5.304;2022-12-24T07:24:38;9.70;99.90
29939;DHT22;16799;50.844;5.304;2022-12-24T07:27:03;9.80;99.90
29939;DHT22;16799;50.844;5.304;2022-12-24T07:29:29;9.80;99.90
29939;DHT22;16799;50.844;5.304;2022-12-24T07:31:55;9.80;99.90
29939;DHT22;16799;50.844;5.304;2022-12-24T07:34:20;9.80;99.90
29939;DHT22;16799;50.844;5.304;2022-12-24T07:36:46;9.80;99.90
29939;DHT22;16799;50.844;5.304;2022-12-24T07:39:12;9.80;99.90
29939;DHT22;16799;50.844;5.304;2022-12-24T07:41:37;9.80;99.90
29939;DHT22;16799;50.844;5.304;2022-12-24T07:44:03;9.80;99.90
29939;DHT22;16799;50.844;5.304;2022-12-24T07:46:29;9.80;99.90
29939;DHT22;16799;50.844;5.304;2022-12-24T07:48:54;9.80;99.90
29939;DHT22;16799;50.844;5.304;2022-12-24T07:51:20;9.70;99.90
29939;DHT22;16799;50.844;5.304;2022-12-24T07:53:46;9.70;99.90
29939;DHT22;16799;50.844;5.304;2022-12-24T07:56:16;9.70;99.90
29939;DHT22;16799;50.844;5.304;2022-12-24T07:58:42;9.70;99.90
29939;DHT22;16799;50.844;5.304;2022-12-24T08:01:08;9.70;99.90
29939;DHT22;16799;50.844;5.304;2022-12-24T08:03:34;9.60;99.90
29939;DHT22;16799;50.844;5.304;2022-12-24T08:05:59;9.60;99.90
29939;DHT22;16799;50.844;5.304;2022-12-24T08:08:26;9.70;99.90
29939;DHT22;16799;50.844;5.304;2022-12-24T08:10:52;9.70;99.90
29939;DHT22;16799;50.844;5.304;2022-12-24T08:13:18;9.70;99.90
29939;DHT22;16799;50.844;5.304;2022-12-24T08:15:44;9.60;99.90
29939;DHT22;16799;50.844;5.304;2022-12-24T08:18:10;9.60;99.90
29939;DHT22;16799;50.844;5.304;2022-12-24T08:20:38;9.60;99.90
29939;DHT22;16799;50.844;5.304;2022-12-24T08:23:04;9.80;99.90
29939;DHT22;16799;50.844;5.304;2022-12-24T08:25:30;9.80;99.90
29939;DHT22;16799;50.844;5.304;2022-12-24T08:27:56;9.80;99.90
29939;DHT22;16799;50.844;5.304;2022-12-24T08:30:22;9.90;99.90
29939;DHT22;16799;50.844;5.304;2022-12-24T08:32:48;9.90;99.90
29939;DHT22;16799;50.844;5.304;2022-12-24T08:35:14;9.90;99.90
29939;DHT22;16799;50.844;5.304;2022-12-24T08:37:39;9.90;99.90
29939;DHT22;16799;50.844;5.304;2022-12-24T08:40:05;10.00;99.90
29939;DHT22;16799;50.844;5.304;2022-12-24T08:42:31;10.00;99.90
29939;DHT22;16799;50.844;5.304;2022-12-24T08:44:57;10.10;99.90
29939;DHT22;16799;50.844;5.304;2022-12-24T08:47:22;10.20;99.90
29939;DHT22;16799;50.844;5.304;2022-12-24T08:49:48;10.30;99.90
29939;DHT22;16799;50.844;5.304;2022-12-24T08:52:13;10.20;99.90
29939;DHT22;16799;50.844;5.304;2022-12-24T08:54:39;10.30;99.90
29939;DHT22;16799;50.844;5.304;2022-12-24T08:57:06;10.30;99.90
29939;DHT22;16799;50.844;5.304;2022-12-24T08:59:31;10.30;99.90
29939;DHT22;16799;50.844;5.304;2022-12-24T09:01:57;10.40;99.90
29939;DHT22;16799;50.844;5.304;2022-12-24T09:04:23;10.40;99.90
29939;DHT22;16799;50.844;5.304;2022-12-24T09:06:48;10.40;99.90
29939;DHT22;16799;50.844;5.304;2022-12-24T09:09:14;10.40;99.90
29939;DHT22;16799;50.844;5.304;2022-12-24T09:11:39;10.50;99.90
29939;DHT22;16799;50.844;5.304;2022-12-24T09:14:05;10.60;99.90
29939;DHT22;16799;50.844;5.304;2022-12-24T09:16:31;10.70;99.90
29939;DHT22;16799;50.844;5.304;2022-12-24T09:18:57;10.70;99.90
29939;DHT22;16799;50.844;5.304;2022-12-24T09:21:23;10.70;99.90
29939;DHT22;16799;50.844;5.304;2022-12-24T09:23:49;10.70;99.90
29939;DHT22;16799;50.844;5.304;2022-12-24T09:26:18;10.70;99.90
29939;DHT22;16799;50.844;5.304;2022-12-24T09:28:44;10.70;99.90
29939;DHT22;16799;50.844;5.304;2022-12-24T09:31:11;10.70;99.90
29939;DHT22;16799;50.844;5.304;2022-12-24T09:33:38;10.70;99.90
29939;DHT22;16799;50.844;5.304;2022-12-24T09:36:05;10.70;99.90
29939;DHT22;16799;50.844;5.304;2022-12-24T09:38:32;10.70;99.90
29939;DHT22;16799;50.844;5.304;2022-12-24T09:40:59;10.80;99.90
29939;DHT22;16799;50.844;5.304;2022-12-24T09:43:28;10.80;99.90
29939;DHT22;16799;50.844;5.304;2022-12-24T09:48:33;11.00;99.90
29939;DHT22;16799;50.844;5.304;2022-12-24T09:51:10;11.00;99.90
29939;DHT22;16799;50.844;5.304;2022-12-24T09:53:39;11.10;99.90
29939;DHT22;16799;50.844;5.304;2022-12-24T09:56:19;11.10;99.90
29939;DHT22;16799;50.844;5.304;2022-12-24T09:58:55;11.10;99.90
29939;DHT22;16799;50.844;5.304;2022-12-24T10:01:22;11.20;99.90
29939;DHT22;16799;50.844;5.304;2022-12-24T10:03:47;11.20;99.90
29939;DHT22;16799;50.844;5.304;2022-12-24T10:06:23;11.40;99.90
29939;DHT22;16799;50.844;5.304;2022-12-24T10:11:55;11.40;99.90
29939;DHT22;16799;50.844;5.304;2022-12-24T10:20:07;11.30;99.90
29939;DHT22;16799;50.844;5.304;2022-12-24T10:26:05;11.30;99.90
29939;DHT22;16799;50.844;5.304;2022-12-24T10:31:25;11.30;99.90
29939;DHT22;16799;50.844;5.304;2022-12-24T10:34:02;11.30;99.90
29939;DHT22;16799;50.844;5.304;2022-12-24T10:36:30;11.30;99.90
29939;DHT22;16799;50.844;5.304;2022-12-24T10:38:56;11.30;99.90
29939;DHT22;16799;50.844;5.304;2022-12-24T10:41:24;11.30;99.90
29939;DHT22;16799;50.844;5.304;2022-12-24T10:43:50;11.40;99.90
29939;DHT22;16799;50.844;5.304;2022-12-24T10:46:37;11.50;99.90
29939;DHT22;16799;50.844;5.304;2022-12-24T10:49:11;11.60;99.90
29939;DHT22;16799;50.844;5.304;2022-12-24T10:54:18;11.70;99.90
29939;DHT22;16799;50.844;5.304;2022-12-24T10:56:47;11.80;99.90
29939;DHT22;16799;50.844;5.304;2022-12-24T11:02:33;11.80;99.90
29939;DHT22;16799;50.844;5.304;2022-12-24T11:05:01;11.70;99.90
29939;DHT22;16799;50.844;5.304;2022-12-24T11:07:28;11.70;99.90
29939;DHT22;16799;50.844;5.304;2022-12-24T11:12:37;11.60;99.90
29939;DHT22;16799;50.844;5.304;2022-12-24T11:15:16;11.60;99.90
29939;DHT22;16799;50.844;5.304;2022-12-24T11:17:51;11.60;99.90
29939;DHT22;16799;50.844;5.304;2022-12-24T11:20:19;11.70;99.90
29939;DHT22;16799;50.844;5.304;2022-12-24T11:22:48;11.90;99.90
29939;DHT22;16799;50.844;5.304;2022-12-24T11:25:29;11.80;99.90
29939;DHT22;16799;50.844;5.304;2022-12-24T11:28:18;11.80;99.90
29939;DHT22;16799;50.844;5.304;2022-12-24T11:30:59;11.80;99.90
29939;DHT22;16799;50.844;5.304;2022-12-24T11:33:26;12.00;99.90
29939;DHT22;16799;50.844;5.304;2022-12-24T11:35:55;12.20;99.90
29939;DHT22;16799;50.844;5.304;2022-12-24T11:38:26;12.40;99.90
29939;DHT22;16799;50.844;5.304;2022-12-24T11:41:07;12.50;99.90
29939;DHT22;16799;50.844;5.304;2022-12-24T11:43:43;12.30;99.90
29939;DHT22;16799;50.844;5.304;2022-12-24T11:46:18;12.00;99.90
29939;DHT22;16799;50.844;5.304;2022-12-24T11:48:44;11.90;99.90
29939;DHT22;16799;50.844;5.304;2022-12-24T11:51:25;11.80;99.90
29939;DHT22;16799;50.844;5.304;2022-12-24T11:54:25;11.70;99.90
29939;DHT22;16799;50.844;5.304;2022-12-24T11:56:54;11.70;99.90
29939;DHT22;16799;50.844;5.304;2022-12-24T12:02:36;12.00;99.90
29939;DHT22;16799;50.844;5.304;2022-12-24T12:05:11;12.30;99.90
29939;DHT22;16799;50.844;5.304;2022-12-24T12:07:40;12.40;99.90
29939;DHT22;16799;50.844;5.304;2022-12-24T12:10:26;12.40;99.90
29939;DHT22;16799;50.844;5.304;2022-12-24T12:13:02;12.80;99.90
29939;DHT22;16799;50.844;5.304;2022-12-24T12:15:42;13.30;99.90
29939;DHT22;16799;50.844;5.304;2022-12-24T12:18:23;13.50;99.90
29939;DHT22;16799;50.844;5.304;2022-12-24T12:20:54;13.50;99.90
29939;DHT22;16799;50.844;5.304;2022-12-24T12:23:31;14.20;99.90
29939;DHT22;16799;50.844;5.304;2022-12-24T12:26:30;14.90;99.90
29939;DHT22;16799;50.844;5.304;2022-12-24T12:28:58;15.10;99.90
29939;DHT22;16799;50.844;5.304;2022-12-24T12:31:31;14.80;99.90
29939;DHT22;16799;50.844;5.304;2022-12-24T12:34:19;14.50;99.90
29939;DHT22;16799;50.844;5.304;2022-12-24T12:36:53;14.60;99.90
29939;DHT22;16799;50.844;5.304;2022-12-24T12:39:22;15.00;99.90
29939;DHT22;16799;50.844;5.304;2022-12-24T12:41:56;15.10;99.90
29939;DHT22;16799;50.844;5.304;2022-12-24T12:50:51;14.80;99.90
29939;DHT22;16799;50.844;5.304;2022-12-24T12:58:31;14.30;99.90
29939;DHT22;16799;50.844;5.304;2022-12-24T13:01:14;14.30;99.90
29939;DHT22;16799;50.844;5.304;2022-12-24T13:04:07;14.80;99.90
29939;DHT22;16799;50.844;5.304;2022-12-24T13:12:00;13.00;99.90
29939;DHT22;16799;50.844;5.304;2022-12-24T13:20:12;12.70;99.90
29939;DHT22;16799;50.844;5.304;2022-12-24T13:22:47;12.80;99.90
29939;DHT22;16799;50.844;5.304;2022-12-24T13:25:39;12.70;99.90
29939;DHT22;16799;50.844;5.304;2022-12-24T13:30:51;12.50;99.90
29939;DHT22;16799;50.844;5.304;2022-12-24T13:36:03;12.30;99.90
29939;DHT22;16799;50.844;5.304;2022-12-24T13:38:31;12.20;99.90
29939;DHT22;16799;50.844;5.304;2022-12-24T13:49:33;12.00;99.90
29939;DHT22;16799;50.844;5.304;2022-12-24T13:55:22;11.90;99.90
29939;DHT22;16799;50.844;5.304;2022-12-24T13:57:30;12.00;99.90
29939;DHT22;16799;50.844;5.304;2022-12-24T14:00:00;12.10;99.90
29939;DHT22;16799;50.844;5.304;2022-12-24T14:02:28;12.10;99.90
29939;DHT22;16799;50.844;5.304;2022-12-24T14:05:01;12.20;99.90
29939;DHT22;16799;50.844;5.304;2022-12-24T14:07:28;12.20;99.90
29939;DHT22;16799;50.844;5.304;2022-12-24T14:09:56;12.20;99.90
29939;DHT22;16799;50.844;5.304;2022-12-24T14:12:47;12.20;99.90
29939;DHT22;16799;50.844;5.304;2022-12-24T14:18:21;12.20;99.90
29939;DHT22;16799;50.844;5.304;2022-12-24T14:20:49;12.20;99.90
29939;DHT22;16799;50.844;5.304;2022-12-24T14:26:01;12.30;99.90
29939;DHT22;16799;50.844;5.304;2022-12-24T14:28:35;12.40;99.90
29939;DHT22;16799;50.844;5.304;2022-12-24T14:31:04;12.20;99.90
29939;DHT22;16799;50.844;5.304;2022-12-24T14:33:32;12.40;99.90
29939;DHT22;16799;50.844;5.304;2022-12-24T14:35:58;12.20;99.90
29939;DHT22;16799;50.844;5.304;2022-12-24T14:38:25;12.20;99.90
29939;DHT22;16799;50.844;5.304;2022-12-24T14:43:49;12.10;99.90
29939;DHT22;16799;50.844;5.304;2022-12-24T14:46:29;12.10;99.90
29939;DHT22;16799;50.844;5.304;2022-12-24T14:52:03;12.10;99.90
29939;DHT22;16799;50.844;5.304;2022-12-24T14:54:40;12.10;99.90
29939;DHT22;16799;50.844;5.304;2022-12-24T14:59:58;12.00;99.90
29939;DHT22;16799;50.844;5.304;2022-12-24T15:02:37;11.80;99.90
29939;DHT22;16799;50.844;5.304;2022-12-24T15:05:09;11.80;99.90
29939;DHT22;16799;50.844;5.304;2022-12-24T15:07:38;11.70;99.90
29939;DHT22;16799;50.844;5.304;2022-12-24T15:12:50;11.70;99.90
29939;DHT22;16799;50.844;5.304;2022-12-24T15:15:17;11.60;99.90
29939;DHT22;16799;50.844;5.304;2022-12-24T15:17:44;11.50;99.90
29939;DHT22;16799;50.844;5.304;2022-12-24T15:20:20;11.50;99.90
29939;DHT22;16799;50.844;5.304;2022-12-24T15:22:50;11.40;99.90
29939;DHT22;16799;50.844;5.304;2022-12-24T15:25:29;11.40;99.90
29939;DHT22;16799;50.844;5.304;2022-12-24T15:27:56;11.40;99.90
29939;DHT22;16799;50.844;5.304;2022-12-24T15:30:24;11.30;99.90
29939;DHT22;16799;50.844;5.304;2022-12-24T15:32:52;11.30;99.90
29939;DHT22;16799;50.844;5.304;2022-12-24T15:35:32;11.30;99.90
29939;DHT22;16799;50.844;5.304;2022-12-24T15:37:59;11.40;99.90
29939;DHT22;16799;50.844;5.304;2022-12-24T15:40:25;11.50;99.90
29939;DHT22;16799;50.844;5.304;2022-12-24T15:42:52;11.70;99.90
29939;DHT22;16799;50.844;5.304;2022-12-24T15:45:19;12.00;99.90
29939;DHT22;16799;50.844;5.304;2022-12-24T15:47:55;12.20;99.90
29939;DHT22;16799;50.844;5.304;2022-12-24T15:50:32;12.20;99.90
29939;DHT22;16799;50.844;5.304;2022-12-24T15:53:13;12.20;99.90
29939;DHT22;16799;50.844;5.304;2022-12-24T15:55:43;12.00;99.90
29939;DHT22;16799;50.844;5.304;2022-12-24T16:00:43;12.00;99.90
29939;DHT22;16799;50.844;5.304;2022-12-24T16:03:23;12.00;99.90
29939;DHT22;16799;50.844;5.304;2022-12-24T16:06:06;12.00;99.90
29939;DHT22;16799;50.844;5.304;2022-12-24T16:08:37;11.90;99.90
29939;DHT22;16799;50.844;5.304;2022-12-24T16:11:15;11.80;99.90
29939;DHT22;16799;50.844;5.304;2022-12-24T16:13:58;11.90;99.90
29939;DHT22;16799;50.844;5.304;2022-12-24T16:16:42;11.80;99.90
29939;DHT22;16799;50.844;5.304;2022-12-24T16:19:21;11.60;99.90
29939;DHT22;16799;50.844;5.304;2022-12-24T16:22:11;11.50;99.90
29939;DHT22;16799;50.844;5.304;2022-12-24T16:24:54;11.40;99.90
29939;DHT22;16799;50.844;5.304;2022-12-24T16:27:20;11.20;99.90
29939;DHT22;16799;50.844;5.304;2022-12-24T16:29:45;11.20;99.90
29939;DHT22;16799;50.844;5.304;2022-12-24T16:34:52;11.20;99.90
29939;DHT22;16799;50.844;5.304;2022-12-24T16:37:18;11.20;99.90
29939;DHT22;16799;50.844;5.304;2022-12-24T16:39:44;11.10;99.90
29939;DHT22;16799;50.844;5.304;2022-12-24T16:42:10;11.20;99.90
29939;DHT22;16799;50.844;5.304;2022-12-24T16:44:54;11.20;99.90
29939;DHT22;16799;50.844;5.304;2022-12-24T16:47:25;11.20;99.90
29939;DHT22;16799;50.844;5.304;2022-12-24T16:49:51;11.20;99.90
29939;DHT22;16799;50.844;5.304;2022-12-24T16:52:20;11.10;99.90
29939;DHT22;16799;50.844;5.304;2022-12-24T16:54:47;11.10;99.90
29939;DHT22;16799;50.844;5.304;2022-12-24T16:57:13;11.00;99.90
29939;DHT22;16799;50.844;5.304;2022-12-24T16:59:39;11.00;99.90
29939;DHT22;16799;50.844;5.304;2022-12-24T17:02:05;11.10;99.90
29939;DHT22;16799;50.844;5.304;2022-12-24T17:04:32;11.30;99.90
29939;DHT22;16799;50.844;5.304;2022-12-24T17:06:58;11.20;99.90
29939;DHT22;16799;50.844;5.304;2022-12-24T17:09:25;11.40;99.90
29939;DHT22;16799;50.844;5.304;2022-12-24T17:11:51;11.50;99.90
29939;DHT22;16799;50.844;5.304;2022-12-24T17:14:17;11.40;99.90
29939;DHT22;16799;50.844;5.304;2022-12-24T17:16:42;11.30;99.90
29939;DHT22;16799;50.844;5.304;2022-12-24T17:19:08;11.20;99.90
29939;DHT22;16799;50.844;5.304;2022-12-24T17:21:35;11.30;99.90
29939;DHT22;16799;50.844;5.304;2022-12-24T17:24:01;11.20;99.90
29939;DHT22;16799;50.844;5.304;2022-12-24T17:26:26;11.10;99.90
29939;DHT22;16799;50.844;5.304;2022-12-24T17:28:53;10.90;99.90
29939;DHT22;16799;50.844;5.304;2022-12-24T17:31:20;10.60;99.90
29939;DHT22;16799;50.844;5.304;2022-12-24T17:33:52;10.60;99.90
29939;DHT22;16799;50.844;5.304;2022-12-24T17:36:19;10.60;99.90
29939;DHT22;16799;50.844;5.304;2022-12-24T17:38:45;10.50;99.90
29939;DHT22;16799;50.844;5.304;2022-12-24T17:41:14;10.40;99.90
29939;DHT22;16799;50.844;5.304;2022-12-24T17:43:40;10.40;99.90
29939;DHT22;16799;50.844;5.304;2022-12-24T17:46:08;10.40;99.90
29939;DHT22;16799;50.844;5.304;2022-12-24T17:48:34;10.30;99.90
29939;DHT22;16799;50.844;5.304;2022-12-24T17:51:11;10.20;99.90
29939;DHT22;16799;50.844;5.304;2022-12-24T17:53:39;10.20;99.90
29939;DHT22;16799;50.844;5.304;2022-12-24T17:56:05;10.10;99.90
29939;DHT22;16799;50.844;5.304;2022-12-24T17:58:32;10.00;99.90
29939;DHT22;16799;50.844;5.304;2022-12-24T18:00:58;10.00;99.90